Flight Track Log - Related Links

Times and Time Zones

All times are in EDT time to prevent confusion due to time zone crossing. See the SWA3943 flight status page for this flight to view local times or setup timezone preferences in your user account.

Time Position Orientation Groundspeed Altitude Reporting Facility
EDT Latitude Longitude Course Direction KTS MPH feet Rate Location/Type
Thu 02:34:24 PM 39.3500 -94.7333 344° North 187 215 2,400  Level Kansas City TRACON
Thu 02:35:03 PM 39.3453 -94.7708 261° West 205 236 3,500 2,505 Climbing Kansas City Center
Thu 02:36:07 PM 39.2881 -94.7964 199° South 229 264 6,700 2,640 Climbing Kansas City Center
Thu 02:37:08 PM 39.2203 -94.8175 194° South 257 296 9,000 2,115 Climbing Kansas City Center
Thu 02:38:09 PM 39.1303 -94.8447 193° South 296 341 11,000 2,129 Climbing Kansas City Center
Thu 02:39:12 PM 39.0397 -94.8714 193° South 344 396 13,400 2,565 Climbing Kansas City Center
Thu 02:40:13 PM 38.9336 -94.9033 193° South 348 400 16,300 2,400 Climbing Kansas City Center
Thu 02:41:17 PM 38.8403 -94.9333 194° South 357 411 18,400 1,968 Climbing Kansas City Center
Thu 02:42:18 PM 38.7281 -94.9714 195° South 370 426 20,400 1,835 Climbing Kansas City Center
Thu 02:43:18 PM 38.6292 -95.0050 195° South 382 440 22,100 1,500 Climbing Kansas City Center
Thu 02:44:22 PM 38.5275 -95.0381 194° South 390 449 23,500 912 Climbing Kansas City Center
Thu 02:45:23 PM 38.4067 -95.0756 194° South 402 463 24,000 246 Climbing Kansas City Center
Thu 02:46:24 PM 38.2989 -95.0803 182° South 403 464 24,000  Level Kansas City Center
Thu 02:47:28 PM 38.1714 -95.0869 182° South 408 470 24,000  Level Kansas City Center
Thu 02:48:28 PM 38.0600 -95.0908 182° South 414 476 24,000  Level Kansas City Center
Thu 02:49:32 PM 37.9261 -95.0967 182° South 427 491 24,000  Level Kansas City Center
Thu 02:50:32 PM 37.8075 -95.1033 183° South 441 507 24,000  Level Kansas City Center
Thu 02:51:36 PM 37.6639 -95.1111 182° South 457 526 24,000  Level Kansas City Center
Thu 02:52:37 PM 37.5350 -95.1144 181° South 461 531 24,000  Level Kansas City Center
Thu 02:53:38 PM 37.4075 -95.1214 182° South 459 528 24,000  Level Kansas City Center
Thu 02:54:41 PM 37.2867 -95.1239 181° South 438 504 24,000  Level Kansas City Center
Thu 02:55:42 PM 37.1750 -95.1308 183° South 406 467 24,000  Level Kansas City Center
Thu 02:56:45 PM 37.0675 -95.1381 183° South 389 448 24,000 -726 Level Kansas City Center
Thu 02:57:46 PM 36.9322 -95.1433 182° South 400 460 22,500 -1,632 Descending Kansas City Center
Thu 02:58:50 PM 36.8136 -95.1464 181° South 418 481 20,600 -1,210 Descending Kansas City Center
Thu 02:59:50 PM 36.7081 -95.1519 182° South 390 449 20,000 -290 Descending Kansas City Center
Thu 03:00:54 PM 36.6006 -95.1553 181° South 365 420 20,000  Level Kansas City Center
Thu 03:01:54 PM 36.4978 -95.1608 182° South 367 422 20,000  Level Kansas City Center
Thu 03:02:55 PM 36.3942 -95.1653 182° South 370 426 20,000  Level Kansas City Center
Thu 03:03:59 PM 36.2911 -95.1700 182° South 371 427 20,000  Level Kansas City Center
Thu 03:05:00 PM 36.1889 -95.1733 182° South 368 423 20,000  Level Kansas City Center
Thu 03:06:02 PM 36.0889 -95.1767 182° South 364 419 20,000  Level Kansas City Center
Thu 03:07:06 PM 35.9775 -95.2022 191° South 352 405 20,000  Level Kansas City Center
Thu 03:08:07 PM 35.8875 -95.2417 200° South 342 394 20,000  Level Kansas City Center
Thu 03:09:08 PM 35.7956 -95.2817 199° South 346 398 20,000  Level Kansas City Center
Thu 03:10:11 PM 35.7008 -95.3219 199° South 355 409 20,000  Level Kansas City Center
Thu 03:11:12 PM 35.6047 -95.3628 199° South 362 417 20,000  Level Kansas City Center
Thu 03:11:55 PM 35.5297 -95.3986 201° Southwest 356 410 20,000  Level Fort Worth Center
Thu 03:12:55 PM 35.4428 -95.4364 199° South 351 404 20,000  Level Fort Worth Center
Thu 03:13:55 PM 35.3536 -95.4742 199° South 346 398 20,000  Level Fort Worth Center
Thu 03:14:55 PM 35.2625 -95.5117 199° South 346 398 20,000  Level Fort Worth Center
Thu 03:15:55 PM 35.1692 -95.5519 199° South 346 398 20,000  Level Fort Worth Center
Thu 03:16:55 PM 35.0761 -95.5972 202° Southwest 351 404 20,000  Level Fort Worth Center
Thu 03:17:55 PM 34.9806 -95.6347 198° South 362 417 20,000  Level Fort Worth Center
Thu 03:18:55 PM 34.8811 -95.6747 198° South 373 429 20,000  Level Fort Worth Center
Thu 03:19:55 PM 34.7836 -95.7172 200° South 373 429 20,000  Level Fort Worth Center
Thu 03:20:56 PM 34.6903 -95.7569 199° South 373 429 20,000  Level Fort Worth Center
Thu 03:21:55 PM 34.5950 -95.7964 199° South 368 423 20,000  Level Fort Worth Center
Thu 03:22:55 PM 34.5014 -95.8361 199° South 362 417 20,000  Level Fort Worth Center
Thu 03:23:55 PM 34.4039 -95.8781 200° South 368 423 20,000  Level Fort Worth Center
Thu 03:24:55 PM 34.3064 -95.9175 198° South 368 423 20,000  Level Fort Worth Center
Thu 03:25:55 PM 34.2047 -95.9619 200° South 373 429 20,000  Level Fort Worth Center
Thu 03:26:55 PM 34.1028 -96.0039 199° South 384 442 20,000  Level Fort Worth Center
Thu 03:27:55 PM 34.0053 -96.0431 198° South 384 442 20,000 -400 Level Fort Worth Center
Thu 03:28:55 PM 33.9014 -96.0847 198° South 389 448 19,200 -1,438 Descending Fort Worth Center
Thu 03:29:56 PM 33.8058 -96.1211 198° South 381 438 17,100 -2,250 Descending Fort Worth Center
Thu 03:30:55 PM 33.7142 -96.1550 197° South 356 410 14,700 -2,168 Descending Fort Worth Center
Thu 03:31:55 PM 33.6269 -96.1911 199° South 346 398 12,800 -2,000 Descending Fort Worth Center
Thu 03:32:55 PM 33.5394 -96.2247 198° South 334 384 10,700 -1,400 Descending Fort Worth Center
Thu 03:33:55 PM 33.4606 -96.2581 199° South 320 368 10,000 -350 Descending Fort Worth Center
Thu 03:34:55 PM 33.3836 -96.2864 197° South 296 341 10,000 -50 Level Fort Worth Center
Thu 03:35:55 PM 33.3067 -96.3172 199° South 296 341 9,900 -850 Descending Fort Worth Center
Thu 03:36:55 PM 33.2486 -96.3553 209° Southwest 285 328 8,300 -1,800 Descending Fort Worth Center
Thu 03:37:55 PM 33.2011 -96.4328 234° Southwest 259 298 6,300 -1,150 Descending Fort Worth Center
Thu 03:38:55 PM 33.1472 -96.4906 222° Southwest 265 305 6,000 -600 Descending Fort Worth Center
Thu 03:39:55 PM 33.0722 -96.5111 193° South 270 311 5,100 -500 Descending Fort Worth Center
Thu 03:40:55 PM 33.0056 -96.5292 193° South 270 311 5,000 -50 Descending Fort Worth Center
Thu 03:41:55 PM 32.9264 -96.5547 195° South 275 316 5,000 -300 Level Fort Worth Center
Thu 03:42:55 PM 32.8597 -96.5800 198° South 275 316 4,400 -1,000 Descending Fort Worth Center
Thu 03:43:55 PM 32.7914 -96.6275 210° Southwest 275 316 3,000 -884 Descending Fort Worth Center
Thu 03:44:30 PM 32.7667 -96.6500 217° Southwest 233 268 3,000 -316 Level Dallas / Fort Worth TRACON
Thu 03:45:30 PM 32.7500 -96.7167 253° West 170 196 2,500 -350 Descending Dallas / Fort Worth TRACON
Thu 03:46:30 PM 32.7500 -96.7500 270° West 142 163 2,300 -250 Descending Dallas / Fort Worth TRACON
Thu 03:47:30 PM 32.7833 -96.7833 320° Northwest 141 162 2,000 -522 Descending Dallas / Fort Worth TRACON
Thu 03:48:25 PM 32.8167 -96.8167 320° Northwest 142 163 1,300 -764 Descending Dallas / Fort Worth TRACON
Thu 03:50:00 PM 32.8333 -96.8500 312° West  Level FlightAware Approximate
Thu 03:57:00 PM 32.8471 -96.8518 312° West  Level Estimated

Login

Don't have an account? Register now (free) for customized features, flight alerts, and more!